sensor_id;sensor_type;location;lat;lon;timestamp;P1;durP1;ratioP1;P2;durP2;ratioP2
12459;SDS011;6295;49.452;8.466;2023-06-24T03:14:14;6.03;;;5.40;;
12459;SDS011;6295;49.452;8.466;2023-06-24T03:18:16;6.03;;;5.47;;
12459;SDS011;6295;49.452;8.466;2023-06-24T03:22:18;6.17;;;5.60;;
12459;SDS011;6295;49.452;8.466;2023-06-24T03:26:22;6.43;;;5.53;;
12459;SDS011;6295;49.452;8.466;2023-06-24T03:30:26;5.70;;;5.13;;
12459;SDS011;6295;49.452;8.466;2023-06-24T03:34:28;6.43;;;5.83;;
12459;SDS011;6295;49.452;8.466;2023-06-24T03:38:31;5.93;;;5.33;;
12459;SDS011;6295;49.452;8.466;2023-06-24T03:42:33;6.07;;;5.47;;
12459;SDS011;6295;49.452;8.466;2023-06-24T03:46:37;5.80;;;5.20;;
12459;SDS011;6295;49.452;8.466;2023-06-24T03:50:41;6.20;;;5.60;;
12459;SDS011;6295;49.452;8.466;2023-06-24T03:54:46;6.13;;;5.53;;
12459;SDS011;6295;49.452;8.466;2023-06-24T03:58:50;7.50;;;5.47;;
12459;SDS011;6295;49.452;8.466;2023-06-24T04:02:56;6.53;;;5.60;;
12459;SDS011;6295;49.452;8.466;2023-06-24T04:07:01;6.73;;;5.87;;
12459;SDS011;6295;49.452;8.466;2023-06-24T04:11:05;6.03;;;5.47;;
12459;SDS011;6295;49.452;8.466;2023-06-24T04:15:08;6.63;;;5.93;;
12459;SDS011;6295;49.452;8.466;2023-06-24T04:19:12;6.40;;;5.80;;
12459;SDS011;6295;49.452;8.466;2023-06-24T04:23:14;5.87;;;5.37;;
12459;SDS011;6295;49.452;8.466;2023-06-24T04:27:16;6.33;;;5.73;;
12459;SDS011;6295;49.452;8.466;2023-06-24T04:31:19;6.33;;;5.73;;
12459;SDS011;6295;49.452;8.466;2023-06-24T04:35:22;6.37;;;5.77;;
12459;SDS011;6295;49.452;8.466;2023-06-24T04:39:25;6.60;;;5.97;;
12459;SDS011;6295;49.452;8.466;2023-06-24T04:43:27;7.30;;;6.30;;
12459;SDS011;6295;49.452;8.466;2023-06-24T04:47:29;6.27;;;5.63;;
12459;SDS011;6295;49.452;8.466;2023-06-24T04:51:33;6.77;;;6.17;;
12459;SDS011;6295;49.452;8.466;2023-06-24T04:55:35;6.60;;;6.00;;
12459;SDS011;6295;49.452;8.466;2023-06-24T04:59:37;6.73;;;6.13;;
12459;SDS011;6295;49.452;8.466;2023-06-24T05:03:39;7.17;;;6.43;;
12459;SDS011;6295;49.452;8.466;2023-06-24T05:07:43;7.10;;;6.47;;
12459;SDS011;6295;49.452;8.466;2023-06-24T05:11:45;7.50;;;6.70;;
12459;SDS011;6295;49.452;8.466;2023-06-24T05:15:47;7.70;;;7.00;;
12459;SDS011;6295;49.452;8.466;2023-06-24T05:19:49;7.97;;;7.20;;
12459;SDS011;6295;49.452;8.466;2023-06-24T05:23:53;8.37;;;7.60;;
12459;SDS011;6295;49.452;8.466;2023-06-24T05:27:55;9.00;;;7.90;;
12459;SDS011;6295;49.452;8.466;2023-06-24T05:31:57;7.00;;;6.30;;
12459;SDS011;6295;49.452;8.466;2023-06-24T05:35:59;7.63;;;6.93;;
12459;SDS011;6295;49.452;8.466;2023-06-24T05:40:04;8.20;;;6.70;;
12459;SDS011;6295;49.452;8.466;2023-06-24T05:44:07;7.80;;;7.10;;
12459;SDS011;6295;49.452;8.466;2023-06-24T05:48:10;7.93;;;7.13;;
12459;SDS011;6295;49.452;8.466;2023-06-24T05:52:12;9.07;;;7.73;;
12459;SDS011;6295;49.452;8.466;2023-06-24T05:56:16;8.83;;;7.93;;
12459;SDS011;6295;49.452;8.466;2023-06-24T06:00:18;7.97;;;7.17;;
12459;SDS011;6295;49.452;8.466;2023-06-24T06:04:20;8.00;;;7.20;;
12459;SDS011;6295;49.452;8.466;2023-06-24T06:08:22;7.50;;;6.70;;
12459;SDS011;6295;49.452;8.466;2023-06-24T06:12:27;7.33;;;6.63;;
12459;SDS011;6295;49.452;8.466;2023-06-24T06:16:32;7.40;;;6.70;;
12459;SDS011;6295;49.452;8.466;2023-06-24T06:20:35;6.90;;;6.30;;
12459;SDS011;6295;49.452;8.466;2023-06-24T06:24:37;6.37;;;5.77;;
12459;SDS011;6295;49.452;8.466;2023-06-24T06:28:41;6.60;;;5.73;;
12459;SDS011;6295;49.452;8.466;2023-06-24T06:32:43;6.20;;;5.60;;
12459;SDS011;6295;49.452;8.466;2023-06-24T06:36:45;6.67;;;6.07;;
12459;SDS011;6295;49.452;8.466;2023-06-24T06:40:47;7.33;;;6.17;;
12459;SDS011;6295;49.452;8.466;2023-06-24T06:44:52;6.17;;;5.67;;
12459;SDS011;6295;49.452;8.466;2023-06-24T06:48:55;6.73;;;5.73;;
12459;SDS011;6295;49.452;8.466;2023-06-24T06:53:00;6.30;;;5.40;;
12459;SDS011;6295;49.452;8.466;2023-06-24T06:57:02;7.30;;;6.17;;
12459;SDS011;6295;49.452;8.466;2023-06-24T07:01:06;10.63;;;6.17;;
12459;SDS011;6295;49.452;8.466;2023-06-24T07:05:08;6.10;;;5.50;;
12459;SDS011;6295;49.452;8.466;2023-06-24T07:09:11;6.20;;;5.60;;
12459;SDS011;6295;49.452;8.466;2023-06-24T07:13:13;5.83;;;5.33;;
12459;SDS011;6295;49.452;8.466;2023-06-24T07:17:17;5.37;;;4.87;;
12459;SDS011;6295;49.452;8.466;2023-06-24T07:21:19;8.20;;;5.83;;
12459;SDS011;6295;49.452;8.466;2023-06-24T07:25:22;5.90;;;5.40;;
12459;SDS011;6295;49.452;8.466;2023-06-24T07:29:24;5.77;;;5.27;;
12459;SDS011;6295;49.452;8.466;2023-06-24T07:33:28;6.40;;;5.63;;
12459;SDS011;6295;49.452;8.466;2023-06-24T07:37:30;5.93;;;5.43;;
12459;SDS011;6295;49.452;8.466;2023-06-24T07:41:33;6.13;;;5.57;;
12459;SDS011;6295;49.452;8.466;2023-06-24T07:45:36;6.00;;;5.40;;
12459;SDS011;6295;49.452;8.466;2023-06-24T07:49:42;5.83;;;5.33;;
12459;SDS011;6295;49.452;8.466;2023-06-24T07:53:45;5.70;;;5.20;;
12459;SDS011;6295;49.452;8.466;2023-06-24T07:57:47;6.00;;;5.40;;
12459;SDS011;6295;49.452;8.466;2023-06-24T08:01:49;5.87;;;5.30;;
12459;SDS011;6295;49.452;8.466;2023-06-24T08:05:52;5.60;;;5.10;;
12459;SDS011;6295;49.452;8.466;2023-06-24T08:09:54;5.57;;;4.97;;
12459;SDS011;6295;49.452;8.466;2023-06-24T08:13:56;5.50;;;5.00;;
12459;SDS011;6295;49.452;8.466;2023-06-24T08:17:59;5.90;;;5.30;;
12459;SDS011;6295;49.452;8.466;2023-06-24T08:22:06;5.80;;;5.30;;
12459;SDS011;6295;49.452;8.466;2023-06-24T08:26:11;5.70;;;5.20;;
12459;SDS011;6295;49.452;8.466;2023-06-24T08:30:16;6.03;;;5.53;;
12459;SDS011;6295;49.452;8.466;2023-06-24T08:34:18;6.00;;;5.50;;
12459;SDS011;6295;49.452;8.466;2023-06-24T08:38:21;5.93;;;5.33;;
12459;SDS011;6295;49.452;8.466;2023-06-24T08:42:24;5.37;;;4.97;;
12459;SDS011;6295;49.452;8.466;2023-06-24T08:46:26;5.83;;;5.33;;
12459;SDS011;6295;49.452;8.466;2023-06-24T08:50:33;6.10;;;5.50;;
12459;SDS011;6295;49.452;8.466;2023-06-24T08:54:50;6.17;;;5.57;;
12459;SDS011;6295;49.452;8.466;2023-06-24T08:58:52;7.13;;;5.10;;
12459;SDS011;6295;49.452;8.466;2023-06-24T09:02:55;6.77;;;5.30;;
12459;SDS011;6295;49.452;8.466;2023-06-24T09:06:58;5.57;;;5.07;;
12459;SDS011;6295;49.452;8.466;2023-06-24T09:11:02;5.27;;;4.77;;
12459;SDS011;6295;49.452;8.466;2023-06-24T09:15:05;5.20;;;4.70;;
12459;SDS011;6295;49.452;8.466;2023-06-24T09:19:07;5.30;;;4.90;;
12459;SDS011;6295;49.452;8.466;2023-06-24T09:23:09;5.60;;;5.10;;
12459;SDS011;6295;49.452;8.466;2023-06-24T09:27:13;5.30;;;4.80;;
12459;SDS011;6295;49.452;8.466;2023-06-24T09:31:16;5.23;;;4.80;;
12459;SDS011;6295;49.452;8.466;2023-06-24T09:35:25;5.40;;;5.00;;
12459;SDS011;6295;49.452;8.466;2023-06-24T09:56:11;5.53;;;5.03;;
12459;SDS011;6295;49.452;8.466;2023-06-24T10:00:18;5.87;;;5.37;;
12459;SDS011;6295;49.452;8.466;2023-06-24T10:04:22;5.60;;;5.10;;
12459;SDS011;6295;49.452;8.466;2023-06-24T10:08:26;5.47;;;4.97;;
12459;SDS011;6295;49.452;8.466;2023-06-24T10:12:30;6.03;;;5.47;;
12459;SDS011;6295;49.452;8.466;2023-06-24T10:16:32;5.50;;;5.10;;
12459;SDS011;6295;49.452;8.466;2023-06-24T10:20:36;6.70;;;6.10;;
12459;SDS011;6295;49.452;8.466;2023-06-24T10:24:39;6.17;;;5.33;;
12459;SDS011;6295;49.452;8.466;2023-06-24T10:33:17;5.97;;;5.47;;
12459;SDS011;6295;49.452;8.466;2023-06-24T10:37:22;5.73;;;5.17;;
12459;SDS011;6295;49.452;8.466;2023-06-24T10:41:26;5.93;;;5.43;;
12459;SDS011;6295;49.452;8.466;2023-06-24T10:45:30;6.07;;;5.53;;
12459;SDS011;6295;49.452;8.466;2023-06-24T10:49:32;5.90;;;5.30;;
12459;SDS011;6295;49.452;8.466;2023-06-24T10:53:34;5.87;;;5.27;;
12459;SDS011;6295;49.452;8.466;2023-06-24T10:57:36;6.40;;;5.80;;
12459;SDS011;6295;49.452;8.466;2023-06-24T11:01:52;5.63;;;5.17;;
12459;SDS011;6295;49.452;8.466;2023-06-24T11:05:55;5.23;;;4.83;;
12459;SDS011;6295;49.452;8.466;2023-06-24T11:09:58;5.50;;;5.00;;
12459;SDS011;6295;49.452;8.466;2023-06-24T11:14:00;5.23;;;4.77;;
12459;SDS011;6295;49.452;8.466;2023-06-24T11:18:05;5.50;;;5.00;;
12459;SDS011;6295;49.452;8.466;2023-06-24T11:22:09;5.60;;;5.10;;
12459;SDS011;6295;49.452;8.466;2023-06-24T11:26:11;5.40;;;4.90;;
12459;SDS011;6295;49.452;8.466;2023-06-24T11:30:16;6.73;;;5.13;;
12459;SDS011;6295;49.452;8.466;2023-06-24T11:34:19;5.00;;;4.53;;
12459;SDS011;6295;49.452;8.466;2023-06-24T11:38:22;5.33;;;4.80;;
12459;SDS011;6295;49.452;8.466;2023-06-24T11:42:32;5.47;;;5.00;;
12459;SDS011;6295;49.452;8.466;2023-06-24T11:46:35;5.27;;;4.87;;
12459;SDS011;6295;49.452;8.466;2023-06-24T11:50:41;7.53;;;5.50;;
12459;SDS011;6295;49.452;8.466;2023-06-24T11:54:43;6.53;;;5.07;;
12459;SDS011;6295;49.452;8.466;2023-06-24T11:58:45;5.40;;;4.90;;
12459;SDS011;6295;49.452;8.466;2023-06-24T12:02:53;6.10;;;5.20;;
12459;SDS011;6295;49.452;8.466;2023-06-24T12:06:57;4.63;;;4.23;;
12459;SDS011;6295;49.452;8.466;2023-06-24T12:10:59;7.67;;;4.70;;
12459;SDS011;6295;49.452;8.466;2023-06-24T12:15:02;4.70;;;4.30;;
12459;SDS011;6295;49.452;8.466;2023-06-24T12:19:04;4.77;;;4.37;;
12459;SDS011;6295;49.452;8.466;2023-06-24T12:23:08;7.13;;;4.53;;
12459;SDS011;6295;49.452;8.466;2023-06-24T12:27:10;5.20;;;4.80;;
12459;SDS011;6295;49.452;8.466;2023-06-24T12:31:12;8.47;;;7.20;;
12459;SDS011;6295;49.452;8.466;2023-06-24T12:35:14;6.97;;;5.03;;
12459;SDS011;6295;49.452;8.466;2023-06-24T12:39:18;5.73;;;4.80;;
12459;SDS011;6295;49.452;8.466;2023-06-24T12:43:20;5.10;;;4.60;;
12459;SDS011;6295;49.452;8.466;2023-06-24T12:47:25;5.57;;;5.07;;
12459;SDS011;6295;49.452;8.466;2023-06-24T12:51:29;5.20;;;4.80;;
12459;SDS011;6295;49.452;8.466;2023-06-24T12:55:33;5.00;;;4.50;;
12459;SDS011;6295;49.452;8.466;2023-06-24T12:59:36;5.23;;;4.60;;
12459;SDS011;6295;49.452;8.466;2023-06-24T13:03:39;4.93;;;4.53;;
12459;SDS011;6295;49.452;8.466;2023-06-24T13:07:41;5.60;;;4.67;;
12459;SDS011;6295;49.452;8.466;2023-06-24T13:11:45;5.37;;;4.47;;
12459;SDS011;6295;49.452;8.466;2023-06-24T13:15:48;5.20;;;4.43;;
12459;SDS011;6295;49.452;8.466;2023-06-24T13:19:50;5.50;;;5.00;;
12459;SDS011;6295;49.452;8.466;2023-06-24T13:23:53;6.40;;;5.10;;
12459;SDS011;6295;49.452;8.466;2023-06-24T13:27:56;5.20;;;4.70;;
12459;SDS011;6295;49.452;8.466;2023-06-24T13:31:59;5.20;;;4.70;;
12459;SDS011;6295;49.452;8.466;2023-06-24T13:36:01;6.53;;;5.03;;
12459;SDS011;6295;49.452;8.466;2023-06-24T13:40:04;5.57;;;5.07;;
12459;SDS011;6295;49.452;8.466;2023-06-24T13:44:09;5.90;;;5.30;;
12459;SDS011;6295;49.452;8.466;2023-06-24T13:48:11;5.40;;;4.90;;
12459;SDS011;6295;49.452;8.466;2023-06-24T13:52:13;5.93;;;5.33;;
12459;SDS011;6295;49.452;8.466;2023-06-24T13:56:15;6.17;;;5.30;;
12459;SDS011;6295;49.452;8.466;2023-06-24T14:00:19;5.70;;;5.20;;
12459;SDS011;6295;49.452;8.466;2023-06-24T14:04:21;5.60;;;5.20;;
12459;SDS011;6295;49.452;8.466;2023-06-24T14:08:23;6.10;;;4.83;;
12459;SDS011;6295;49.452;8.466;2023-06-24T14:12:25;5.40;;;4.93;;
12459;SDS011;6295;49.452;8.466;2023-06-24T14:16:29;6.10;;;5.60;;
12459;SDS011;6295;49.452;8.466;2023-06-24T14:20:31;6.13;;;5.53;;
12459;SDS011;6295;49.452;8.466;2023-06-24T14:24:34;8.37;;;5.53;;
12459;SDS011;6295;49.452;8.466;2023-06-24T14:28:36;5.93;;;5.33;;
12459;SDS011;6295;49.452;8.466;2023-06-24T14:32:40;5.40;;;5.00;;
12459;SDS011;6295;49.452;8.466;2023-06-24T14:36:42;6.70;;;5.60;;
12459;SDS011;6295;49.452;8.466;2023-06-24T14:40:45;6.17;;;5.57;;
12459;SDS011;6295;49.452;8.466;2023-06-24T14:44:47;5.73;;;5.23;;
12459;SDS011;6295;49.452;8.466;2023-06-24T14:48:50;6.27;;;5.63;;
12459;SDS011;6295;49.452;8.466;2023-06-24T14:52:52;6.73;;;5.47;;
12459;SDS011;6295;49.452;8.466;2023-06-24T14:56:55;6.47;;;5.20;;
12459;SDS011;6295;49.452;8.466;2023-06-24T15:00:57;6.47;;;5.47;;
12459;SDS011;6295;49.452;8.466;2023-06-24T15:05:01;6.23;;;5.63;;
12459;SDS011;6295;49.452;8.466;2023-06-24T15:09:03;6.23;;;5.63;;
12459;SDS011;6295;49.452;8.466;2023-06-24T15:13:06;6.13;;;5.53;;
12459;SDS011;6295;49.452;8.466;2023-06-24T15:17:09;7.00;;;6.30;;
12459;SDS011;6295;49.452;8.466;2023-06-24T15:21:14;8.03;;;7.27;;
12459;SDS011;6295;49.452;8.466;2023-06-24T15:25:16;7.20;;;6.30;;
12459;SDS011;6295;49.452;8.466;2023-06-24T15:29:18;6.17;;;5.57;;
12459;SDS011;6295;49.452;8.466;2023-06-24T15:33:20;6.57;;;5.80;;
12459;SDS011;6295;49.452;8.466;2023-06-24T15:37:24;6.03;;;5.43;;
12459;SDS011;6295;49.452;8.466;2023-06-24T15:41:26;7.37;;;6.60;;
12459;SDS011;6295;49.452;8.466;2023-06-24T15:45:28;6.23;;;5.63;;
12459;SDS011;6295;49.452;8.466;2023-06-24T15:49:31;5.63;;;5.13;;
12459;SDS011;6295;49.452;8.466;2023-06-24T15:53:36;6.43;;;5.57;;
12459;SDS011;6295;49.452;8.466;2023-06-24T15:57:38;5.47;;;5.07;;
12459;SDS011;6295;49.452;8.466;2023-06-24T16:01:40;5.87;;;5.37;;
12459;SDS011;6295;49.452;8.466;2023-06-24T16:05:43;6.10;;;5.60;;
12459;SDS011;6295;49.452;8.466;2023-06-24T16:09:47;5.80;;;5.20;;
12459;SDS011;6295;49.452;8.466;2023-06-24T16:13:50;6.10;;;5.50;;
12459;SDS011;6295;49.452;8.466;2023-06-24T16:17:52;6.83;;;5.40;;
12459;SDS011;6295;49.452;8.466;2023-06-24T16:21:54;6.47;;;5.73;;
12459;SDS011;6295;49.452;8.466;2023-06-24T16:25:59;6.57;;;5.60;;
12459;SDS011;6295;49.452;8.466;2023-06-24T16:30:01;5.70;;;5.17;;
12459;SDS011;6295;49.452;8.466;2023-06-24T16:34:04;5.80;;;5.23;;
12459;SDS011;6295;49.452;8.466;2023-06-24T16:38:07;6.30;;;5.70;;
12459;SDS011;6295;49.452;8.466;2023-06-24T16:42:11;11.10;;;7.33;;
12459;SDS011;6295;49.452;8.466;2023-06-24T16:46:13;6.17;;;5.67;;
12459;SDS011;6295;49.452;8.466;2023-06-24T16:50:17;7.20;;;6.30;;
12459;SDS011;6295;49.452;8.466;2023-06-24T16:54:20;10.47;;;9.47;;
12459;SDS011;6295;49.452;8.466;2023-06-24T16:58:25;7.80;;;7.10;;
12459;SDS011;6295;49.452;8.466;2023-06-24T17:02:28;6.27;;;5.67;;
12459;SDS011;6295;49.452;8.466;2023-06-24T17:06:32;6.50;;;5.90;;
12459;SDS011;6295;49.452;8.466;2023-06-24T17:10:34;7.50;;;6.07;;
12459;SDS011;6295;49.452;8.466;2023-06-24T17:14:38;10.37;;;7.10;;
12459;SDS011;6295;49.452;8.466;2023-06-24T17:18:40;8.30;;;7.50;;
12459;SDS011;6295;49.452;8.466;2023-06-24T17:22:42;7.50;;;6.80;;
12459;SDS011;6295;49.452;8.466;2023-06-24T17:26:44;6.90;;;6.20;;
12459;SDS011;6295;49.452;8.466;2023-06-24T17:30:48;6.20;;;5.70;;
12459;SDS011;6295;49.452;8.466;2023-06-24T17:34:51;6.10;;;5.43;;
12459;SDS011;6295;49.452;8.466;2023-06-24T17:38:55;5.67;;;5.23;;
12459;SDS011;6295;49.452;8.466;2023-06-24T17:43:01;5.80;;;5.33;;
12459;SDS011;6295;49.452;8.466;2023-06-24T17:47:06;6.40;;;5.53;;
12459;SDS011;6295;49.452;8.466;2023-06-24T17:51:08;5.33;;;4.93;;
12459;SDS011;6295;49.452;8.466;2023-06-24T17:55:10;5.60;;;5.10;;
12459;SDS011;6295;49.452;8.466;2023-06-24T17:59:15;7.37;;;6.70;;
12459;SDS011;6295;49.452;8.466;2023-06-24T18:03:18;7.30;;;6.60;;
12459;SDS011;6295;49.452;8.466;2023-06-24T18:07:23;7.03;;;6.43;;
12459;SDS011;6295;49.452;8.466;2023-06-24T18:11:25;12.47;;;6.63;;
12459;SDS011;6295;49.452;8.466;2023-06-24T18:15:28;7.97;;;7.00;;
12459;SDS011;6295;49.452;8.466;2023-06-24T18:19:32;12.07;;;9.20;;
12459;SDS011;6295;49.452;8.466;2023-06-24T18:23:35;9.43;;;7.33;;
12459;SDS011;6295;49.452;8.466;2023-06-24T18:27:38;7.17;;;6.57;;
12459;SDS011;6295;49.452;8.466;2023-06-24T18:31:42;7.00;;;6.10;;
12459;SDS011;6295;49.452;8.466;2023-06-24T18:35:45;9.57;;;5.77;;
12459;SDS011;6295;49.452;8.466;2023-06-24T18:39:47;10.27;;;6.63;;
12459;SDS011;6295;49.452;8.466;2023-06-24T18:43:49;15.07;;;7.30;;
12459;SDS011;6295;49.452;8.466;2023-06-24T18:47:52;8.97;;;6.47;;
12459;SDS011;6295;49.452;8.466;2023-06-24T18:51:57;9.63;;;8.20;;
12459;SDS011;6295;49.452;8.466;2023-06-24T18:56:00;9.73;;;7.57;;
